createdAt,value
2022-08-04T00:01:04.003Z,11.00
2022-08-04T00:04:04.536Z,7.50
2022-08-04T00:07:09.095Z,10.00
2022-08-04T00:10:07.262Z,9.50
2022-08-04T00:13:05.599Z,9.50
2022-08-04T00:16:07.206Z,10.40
2022-08-04T00:19:08.035Z,11.00
2022-08-04T00:22:05.700Z,10.25
2022-08-04T00:25:03.225Z,9.20
2022-08-04T00:28:00.918Z,10.50
2022-08-04T00:30:57.546Z,9.80
2022-08-04T00:33:56.975Z,1.20
2022-08-04T00:36:54.256Z,10.80
2022-08-04T00:39:52.687Z,12.00
2022-08-04T00:43:00.103Z,8.00
2022-08-04T00:46:12.503Z,12.60
2022-08-04T00:49:32.505Z,13.00
2022-08-04T00:52:34.127Z,10.20
2022-08-04T00:56:02.608Z,12.80
2022-08-04T00:59:04.131Z,11.00
2022-08-04T01:02:25.103Z,13.00
2022-08-04T01:05:37.655Z,15.40
2022-08-04T01:08:59.741Z,12.40
2022-08-04T01:12:09.528Z,13.00
2022-08-04T01:15:08.100Z,13.60
2022-08-04T01:18:06.264Z,13.00
2022-08-04T01:21:21.805Z,12.80
2022-08-04T01:24:43.476Z,14.60
2022-08-04T01:28:02.544Z,13.00
2022-08-04T01:31:07.342Z,15.00
2022-08-04T01:34:12.468Z,13.80
2022-08-04T01:37:16.894Z,14.80
2022-08-04T01:40:14.407Z,14.80
2022-08-04T01:43:11.659Z,14.00
2022-08-04T01:46:11.176Z,13.00
2022-08-04T01:49:08.614Z,15.60
2022-08-04T01:52:08.276Z,15.80
2022-08-04T01:55:09.432Z,16.80
2022-08-04T01:58:07.211Z,16.40
2022-08-04T02:01:06.642Z,16.60
2022-08-04T02:04:21.788Z,16.20
2022-08-04T02:07:28.501Z,19.00
2022-08-04T02:10:51.571Z,16.00
2022-08-04T02:14:00.139Z,16.60
2022-08-04T02:16:56.913Z,16.40
2022-08-04T02:20:10.165Z,20.00
2022-08-04T02:23:09.082Z,18.80
2022-08-04T02:26:22.355Z,19.40
2022-08-04T02:29:21.758Z,22.20
2022-08-04T02:32:22.246Z,22.80
2022-08-04T02:35:26.581Z,22.40
2022-08-04T02:38:32.343Z,24.20
2022-08-04T02:41:30.734Z,26.80
2022-08-04T02:44:28.232Z,28.60
2022-08-04T02:48:28.837Z,27.40
2022-08-04T02:50:42.910Z,26.40
2022-08-04T02:53:40.468Z,26.60
2022-08-04T02:56:38.882Z,27.20
2022-08-04T03:00:12.962Z,23.60
2022-08-04T03:03:33.170Z,26.40
2022-08-04T03:06:53.664Z,25.20
2022-08-04T03:10:12.483Z,27.00
2022-08-04T03:13:34.265Z,26.40
2022-08-04T03:16:50.935Z,28.40
2022-08-04T03:19:56.651Z,30.75
2022-08-04T03:23:14.241Z,31.00
2022-08-04T03:26:30.424Z,32.25
2022-08-04T03:29:49.505Z,31.50
2022-08-04T03:33:24.791Z,31.50
2022-08-04T03:36:54.398Z,31.25
2022-08-04T03:40:10.882Z,30.80
2022-08-04T03:43:57.954Z,29.20
2022-08-04T03:47:09.831Z,31.40
2022-08-04T03:50:41.600Z,28.60
2022-08-04T03:53:44.470Z,29.80
2022-08-04T03:56:51.079Z,29.40
2022-08-04T04:00:04.987Z,30.60
2022-08-04T04:03:53.506Z,31.00
2022-08-04T04:07:14.320Z,30.75
2022-08-04T04:10:28.917Z,29.20
2022-08-04T04:13:49.311Z,30.75
2022-08-04T04:16:58.116Z,30.40
2022-08-04T04:20:05.839Z,29.60
2022-08-04T04:23:34.860Z,30.80
2022-08-04T04:26:59.416Z,28.80
2022-08-04T04:30:16.598Z,30.20
2022-08-04T04:33:35.549Z,28.00
2022-08-04T04:37:10.925Z,27.20
2022-08-04T04:40:14.342Z,26.20
2022-08-04T04:43:51.413Z,28.40
2022-08-04T04:47:05.299Z,30.60
2022-08-04T04:50:36.751Z,29.00
2022-08-04T04:53:59.913Z,32.67
2022-08-04T04:56:58.121Z,32.00
2022-08-04T05:00:05.852Z,33.00
2022-08-04T05:03:15.165Z,32.00
2022-08-04T05:06:37.605Z,30.75
2022-08-04T05:10:05.776Z,33.50
2022-08-04T05:14:37.361Z,33.50
2022-08-04T05:16:44.879Z,31.00
2022-08-04T05:20:04.049Z,32.50
2022-08-04T05:23:14.260Z,32.67
2022-08-04T05:26:12.759Z,34.00
2022-08-04T05:29:12.168Z,33.67
2022-08-04T05:32:13.417Z,36.67
2022-08-04T05:35:12.845Z,38.50
2022-08-04T05:38:11.126Z,37.50
2022-08-04T05:41:08.467Z,39.25
2022-08-04T05:44:05.799Z,42.50
2022-08-04T05:47:03.886Z,44.25
2022-08-04T05:50:05.238Z,42.25
2022-08-04T05:53:01.943Z,41.25
2022-08-04T05:55:59.951Z,46.00
2022-08-04T05:58:57.309Z,43.25
2022-08-04T06:01:57.764Z,41.25
2022-08-04T06:04:54.981Z,44.50
2022-08-04T06:08:07.726Z,43.50
2022-08-04T06:11:09.430Z,45.50
2022-08-04T06:14:09.019Z,48.00
2022-08-04T06:18:33.110Z,46.25
2022-08-04T06:20:27.465Z,46.75
2022-08-04T06:23:29.215Z,48.00
2022-08-04T06:26:26.238Z,46.75
2022-08-04T06:29:28.220Z,44.00
2022-08-04T06:32:35.474Z,45.00
2022-08-04T06:35:35.408Z,44.00
2022-08-04T06:38:32.518Z,44.50
2022-08-04T06:41:30.272Z,46.00
2022-08-04T06:44:27.307Z,43.00
2022-08-04T06:47:24.195Z,42.50
2022-08-04T06:51:26.757Z,42.00
2022-08-04T06:53:38.056Z,42.75
2022-08-04T06:56:35.407Z,43.25
2022-08-04T06:59:32.236Z,42.50
2022-08-04T07:02:30.562Z,45.50
2022-08-04T07:05:28.242Z,45.00
2022-08-04T07:08:24.869Z,45.50
2022-08-04T07:11:22.285Z,42.75
2022-08-04T07:14:19.062Z,43.75
2022-08-04T07:17:16.930Z,45.00
2022-08-04T07:20:15.472Z,43.75
2022-08-04T07:23:31.217Z,45.25
2022-08-04T07:26:29.418Z,44.75
2022-08-04T07:29:27.606Z,47.75
2022-08-04T07:32:25.216Z,45.00
2022-08-04T07:36:04.546Z,48.00
2022-08-04T07:38:46.366Z,43.50
2022-08-04T07:41:49.003Z,46.25
2022-08-04T07:44:46.488Z,45.00
2022-08-04T07:48:05.034Z,43.25
2022-08-04T07:51:01.442Z,41.75
2022-08-04T07:53:58.521Z,42.50
2022-08-04T07:56:55.823Z,42.25
2022-08-04T07:59:53.261Z,41.00
2022-08-04T08:02:50.662Z,43.75
2022-08-04T08:06:17.683Z,43.25
2022-08-04T08:09:15.976Z,47.25
2022-08-04T08:12:36.220Z,46.25
2022-08-04T08:15:31.320Z,40.25
2022-08-04T08:18:28.323Z,43.50
2022-08-04T08:21:25.076Z,42.25
2022-08-04T08:24:22.238Z,41.75
2022-08-04T08:27:19.644Z,43.50
2022-08-04T08:30:17.450Z,43.50
2022-08-04T08:33:15.283Z,45.25
2022-08-04T08:36:26.331Z,45.00
2022-08-04T08:39:29.257Z,43.25
2022-08-04T08:42:33.706Z,46.00
2022-08-04T08:46:08.911Z,45.50
2022-08-04T08:50:02.515Z,44.50
2022-08-04T08:52:56.186Z,44.50
2022-08-04T08:56:35.089Z,42.50
2022-08-04T08:59:59.365Z,45.50
2022-08-04T09:03:14.469Z,42.33
2022-08-04T09:06:46.142Z,40.33
2022-08-04T09:10:04.661Z,42.25
2022-08-04T09:13:11.317Z,47.00
2022-08-04T09:16:15.697Z,40.75
2022-08-04T09:19:38.141Z,45.50
2022-08-04T09:22:50.475Z,43.00
2022-08-04T09:25:51.851Z,45.25
2022-08-04T09:29:07.632Z,42.00
2022-08-04T09:32:11.514Z,45.00
2022-08-04T09:35:38.589Z,44.33
2022-08-04T09:38:42.576Z,45.00
2022-08-04T09:42:00.249Z,45.67
2022-08-04T09:45:06.499Z,46.50
2022-08-04T09:48:08.634Z,44.00
2022-08-04T09:51:17.200Z,39.00
2022-08-04T09:54:30.962Z,45.33
2022-08-04T09:57:31.451Z,43.00
2022-08-04T10:00:40.947Z,42.33
2022-08-04T10:03:40.642Z,46.33
2022-08-04T10:07:18.727Z,47.67
2022-08-04T10:10:50.206Z,41.00
2022-08-04T10:14:05.461Z,43.33
2022-08-04T10:17:15.291Z,44.67
2022-08-04T10:20:33.967Z,45.33
2022-08-04T10:24:00.185Z,45.00
2022-08-04T10:27:01.835Z,43.00
2022-08-04T10:30:12.202Z,41.00
2022-08-04T10:33:37.692Z,43.00
2022-08-04T10:36:48.759Z,38.50
2022-08-04T10:40:11.492Z,43.75
2022-08-04T10:43:20.871Z,44.00
2022-08-04T10:46:27.175Z,40.75
2022-08-04T10:49:33.302Z,45.00
2022-08-04T10:52:38.913Z,46.67
2022-08-04T10:56:07.679Z,46.50
2022-08-04T10:59:13.142Z,40.50
2022-08-04T11:02:36.695Z,42.25
2022-08-04T11:05:43.951Z,38.25
2022-08-04T11:08:46.702Z,44.00
2022-08-04T11:12:21.878Z,42.00
2022-08-04T11:15:22.394Z,41.25
2022-08-04T11:18:33.434Z,44.75
2022-08-04T11:21:33.458Z,55.00
2022-08-04T11:24:59.571Z,41.00
2022-08-04T11:28:58.475Z,39.50
2022-08-04T11:32:01.478Z,43.25
2022-08-04T11:35:02.186Z,42.00
2022-08-04T11:38:08.134Z,39.50
2022-08-04T11:41:13.395Z,40.00
2022-08-04T11:44:15.813Z,39.00
2022-08-04T11:47:24.640Z,39.00
2022-08-04T11:50:38.459Z,40.00
2022-08-04T11:53:36.915Z,40.75
2022-08-04T11:56:37.230Z,34.75
2022-08-04T11:59:36.116Z,42.00
2022-08-04T12:02:52.322Z,38.75
2022-08-04T12:06:14.771Z,37.00
2022-08-04T12:09:27.794Z,39.25
2022-08-04T12:12:51.238Z,41.50
2022-08-04T12:15:58.232Z,47.67
2022-08-04T12:19:01.647Z,42.25
2022-08-04T12:22:03.726Z,44.25
2022-08-04T12:25:14.364Z,44.67
2022-08-04T12:28:19.009Z,41.75
2022-08-04T12:31:41.089Z,34.25
2022-08-04T12:34:43.595Z,34.50
2022-08-04T12:37:53.547Z,38.50
2022-08-04T12:40:51.780Z,41.50
2022-08-04T12:43:50.319Z,40.00
2022-08-04T12:46:47.576Z,48.25
2022-08-04T12:49:47.378Z,42.67
2022-08-04T12:53:02.667Z,44.50
2022-08-04T12:56:02.096Z,42.25
2022-08-04T12:59:12.777Z,42.50
2022-08-04T13:02:17.494Z,41.25
2022-08-04T13:05:17.124Z,41.25
2022-08-04T13:08:15.520Z,44.33
2022-08-04T13:11:12.591Z,39.50
2022-08-04T13:14:26.021Z,41.00
2022-08-04T13:17:28.131Z,35.75
2022-08-04T13:20:32.875Z,38.00
2022-08-04T13:24:10.703Z,44.00
2022-08-04T13:26:58.478Z,39.00
2022-08-04T13:30:24.521Z,44.25
2022-08-04T13:33:20.119Z,50.50
2022-08-04T13:36:18.115Z,39.75
2022-08-04T13:39:18.875Z,39.25
2022-08-04T13:42:16.970Z,39.75
2022-08-04T13:45:14.450Z,45.50
2022-08-04T13:48:31.662Z,44.75
2022-08-04T13:51:57.412Z,47.50
2022-08-04T13:54:47.036Z,47.00
2022-08-04T13:57:45.243Z,50.00
2022-08-04T14:01:03.003Z,40.25
2022-08-04T14:04:06.143Z,46.25
2022-08-04T14:07:20.853Z,46.75
2022-08-04T14:10:19.267Z,46.50
2022-08-04T14:13:16.987Z,46.00
2022-08-04T14:16:19.228Z,45.00
2022-08-04T14:19:16.529Z,45.50
2022-08-04T14:22:26.466Z,42.50
2022-08-04T14:25:26.553Z,46.50
2022-08-04T14:29:25.857Z,46.00
2022-08-04T14:31:57.826Z,47.00
2022-08-04T14:34:56.399Z,45.25
2022-08-04T14:37:56.478Z,44.75
2022-08-04T14:40:53.674Z,40.25
2022-08-04T14:43:51.837Z,47.75
2022-08-04T14:46:53.105Z,47.50
2022-08-04T14:49:55.257Z,50.50
2022-08-04T14:52:52.682Z,48.00
2022-08-04T14:55:53.803Z,49.50
2022-08-04T14:59:07.050Z,45.25
2022-08-04T15:02:04.702Z,51.25
2022-08-04T15:06:01.959Z,48.25
2022-08-04T15:08:18.690Z,47.25
2022-08-04T15:11:22.999Z,55.25
2022-08-04T15:14:37.438Z,55.00
2022-08-04T15:17:35.739Z,44.00
2022-08-04T15:20:32.679Z,46.75
2022-08-04T15:23:38.649Z,46.25
2022-08-04T15:26:51.576Z,53.50
2022-08-04T15:29:59.319Z,49.00
2022-08-04T15:33:01.498Z,49.25
2022-08-04T15:36:33.839Z,47.50
2022-08-04T15:40:08.757Z,40.75
2022-08-04T15:43:16.731Z,43.50
2022-08-04T15:46:44.370Z,43.50
2022-08-04T15:49:30.982Z,40.50
2022-08-04T15:52:31.997Z,50.00
2022-08-04T15:55:36.512Z,45.25
2022-08-04T15:58:49.219Z,52.25
2022-08-04T16:02:11.590Z,45.00
2022-08-04T16:05:18.514Z,53.00
2022-08-04T16:08:16.157Z,48.75
2022-08-04T16:11:36.857Z,48.00
2022-08-04T16:14:35.840Z,49.00
2022-08-04T16:17:32.809Z,50.00
2022-08-04T16:20:29.572Z,47.50
2022-08-04T16:23:55.140Z,47.00
2022-08-04T16:26:57.357Z,48.00
2022-08-04T16:30:03.471Z,47.50
2022-08-04T16:33:00.603Z,45.25
2022-08-04T16:36:07.780Z,51.50
2022-08-04T16:39:07.887Z,45.50
2022-08-04T16:42:30.231Z,47.25
2022-08-04T16:45:40.102Z,48.50
2022-08-04T16:48:37.824Z,47.00
2022-08-04T16:51:34.771Z,42.00
2022-08-04T16:54:32.676Z,46.75
2022-08-04T16:57:29.496Z,44.75
2022-08-04T17:00:31.475Z,50.50
2022-08-04T17:03:28.713Z,47.00
2022-08-04T17:06:25.685Z,51.00
2022-08-04T17:09:28.396Z,48.00
2022-08-04T17:12:29.054Z,51.25
2022-08-04T17:15:26.927Z,47.50
2022-08-04T17:18:27.960Z,47.75
2022-08-04T17:21:29.541Z,47.75
2022-08-04T17:24:26.493Z,46.50
2022-08-04T17:30:40.643Z,50.00
2022-08-04T17:33:55.058Z,48.00
2022-08-04T17:37:03.030Z,47.50
2022-08-04T17:40:22.425Z,48.50
2022-08-04T17:44:05.007Z,46.75
2022-08-04T17:46:45.426Z,47.75
2022-08-04T17:49:53.100Z,50.50
2022-08-04T17:53:12.030Z,50.00
2022-08-04T17:56:32.901Z,46.25
2022-08-04T17:59:52.903Z,48.00
2022-08-04T18:02:57.156Z,48.00
2022-08-04T18:06:03.462Z,48.00
2022-08-04T18:09:22.695Z,47.00
2022-08-04T18:12:25.527Z,46.50
2022-08-04T18:15:23.099Z,48.75
2022-08-04T18:18:23.725Z,50.25
2022-08-04T18:21:20.728Z,48.75
2022-08-04T18:24:19.109Z,46.50
2022-08-04T18:27:32.322Z,51.00
2022-08-04T18:30:36.513Z,48.25
2022-08-04T18:33:57.198Z,52.25
2022-08-04T18:36:59.031Z,51.50
2022-08-04T18:40:17.423Z,49.75
2022-08-04T18:43:14.377Z,45.25
2022-08-04T18:46:15.145Z,49.25
2022-08-04T18:51:01.541Z,42.75
2022-08-04T18:52:31.088Z,40.50
2022-08-04T18:55:56.013Z,42.50
2022-08-04T18:58:46.704Z,46.25
2022-08-04T19:02:13.231Z,44.00
2022-08-04T19:05:02.669Z,44.25
2022-08-04T19:08:01.980Z,46.75
2022-08-04T19:11:54.176Z,46.00
2022-08-04T19:14:34.752Z,46.00
2022-08-04T19:17:52.598Z,41.75
2022-08-04T19:20:49.789Z,43.00
2022-08-04T19:24:23.487Z,43.75
2022-08-04T19:27:07.023Z,46.25
2022-08-04T19:30:05.845Z,46.00
2022-08-04T19:33:02.768Z,48.25
2022-08-04T19:36:04.721Z,42.00
2022-08-04T19:39:11.573Z,49.50
2022-08-04T19:42:08.742Z,42.75
2022-08-04T19:45:15.821Z,43.75
2022-08-04T19:48:18.626Z,44.75
2022-08-04T19:51:20.282Z,46.25
2022-08-04T19:54:27.287Z,47.25
2022-08-04T19:57:32.369Z,46.75
2022-08-04T20:00:34.394Z,48.75
2022-08-04T20:04:10.408Z,48.50
2022-08-04T20:06:50.167Z,44.50
2022-08-04T20:09:53.697Z,46.25
2022-08-04T20:12:55.567Z,48.50
2022-08-04T20:15:57.405Z,44.75
2022-08-04T20:22:50.639Z,45.00
2022-08-04T20:25:36.343Z,45.25
2022-08-04T20:28:36.507Z,45.50
2022-08-04T20:31:33.695Z,46.25
2022-08-04T20:34:41.497Z,46.50
2022-08-04T20:37:55.530Z,42.75
2022-08-04T20:41:00.217Z,45.25
2022-08-04T20:43:58.679Z,45.50
2022-08-04T20:46:55.688Z,45.25
2022-08-04T20:49:52.756Z,46.25
2022-08-04T20:52:49.721Z,42.75
2022-08-04T20:55:55.907Z,44.25
2022-08-04T20:58:52.509Z,43.00
2022-08-04T21:01:53.857Z,40.25
2022-08-04T21:04:51.191Z,47.00
2022-08-04T21:07:48.956Z,43.25
2022-08-04T21:10:47.455Z,41.75
2022-08-04T21:13:52.137Z,45.00
2022-08-04T21:16:55.520Z,46.00
2022-08-04T21:19:54.106Z,43.50
2022-08-04T21:22:50.953Z,45.25
2022-08-04T21:25:55.371Z,43.75
2022-08-04T21:28:55.254Z,42.75
2022-08-04T21:31:54.000Z,43.75
2022-08-04T21:34:54.528Z,48.00
2022-08-04T21:37:57.828Z,46.00
2022-08-04T21:41:01.897Z,40.25
2022-08-04T21:43:59.163Z,42.00
2022-08-04T21:46:56.166Z,42.25
2022-08-04T21:49:56.341Z,41.00
2022-08-04T21:52:55.559Z,39.75
2022-08-04T21:56:05.112Z,47.00
2022-08-04T21:59:11.042Z,44.25
2022-08-04T22:02:11.007Z,45.25
2022-08-04T22:05:08.154Z,41.25
2022-08-04T22:08:05.888Z,44.00
2022-08-04T22:11:02.839Z,47.25
2022-08-04T22:14:11.660Z,46.75
2022-08-04T22:17:13.370Z,41.25
2022-08-04T22:20:27.898Z,38.00
2022-08-04T22:23:25.962Z,41.25
2022-08-04T22:26:26.629Z,41.25
2022-08-04T22:29:23.807Z,43.25
2022-08-04T22:32:21.252Z,46.50
2022-08-04T22:35:36.063Z,40.00
2022-08-04T22:38:50.355Z,45.50
2022-08-04T22:42:03.766Z,42.00
2022-08-04T22:45:00.982Z,40.75
2022-08-04T22:47:57.871Z,40.75
2022-08-04T22:50:56.121Z,40.25
2022-08-04T22:53:53.059Z,38.75
2022-08-04T22:56:50.191Z,35.75
2022-08-04T22:59:49.907Z,35.75
2022-08-04T23:02:48.498Z,35.25
2022-08-04T23:05:48.209Z,35.50
2022-08-04T23:08:48.581Z,38.00
2022-08-04T23:11:50.507Z,39.50
2022-08-04T23:14:58.231Z,37.25
2022-08-04T23:17:55.641Z,37.00
2022-08-04T23:20:52.770Z,33.50
2022-08-04T23:24:00.711Z,35.25
2022-08-04T23:27:00.368Z,37.50
2022-08-04T23:29:56.733Z,35.00
2022-08-04T23:33:08.810Z,37.25
2022-08-04T23:36:07.893Z,36.25
2022-08-04T23:39:42.251Z,38.00
2022-08-04T23:42:45.463Z,35.50
2022-08-04T23:46:07.831Z,35.25
2022-08-04T23:49:08.567Z,41.50
2022-08-04T23:52:29.681Z,42.25
2022-08-04T23:55:47.007Z,33.67
2022-08-04T23:58:46.956Z,43.50
